Time;durP1;ratioP1;P1;durP2;ratioP2;P2;SDS_P1;SDS_P2;PMS_P1;PMS_P2;Temp;Humidity;BMP_temperature;BMP_pressure;BME280_temperature;BME280_humidity;BME280_pressure;Samples;Min_cycle;Max_cycle;Signal;HPM_P1;HPM_P2
2021/11/30 00:02:29;;;;;;;9.43;8.63;;;1.00;99.90;;;1.86;100.00;97734.69;5212933;28;20269;-79
2021/11/30 00:05:03;;;;;;;9.23;8.63;;;1.00;99.90;;;1.90;100.00;97746.81;5209093;28;20240;-79
2021/11/30 00:07:38;;;;;;;10.13;9.30;;;0.90;99.90;;;1.86;100.00;97742.25;5206724;28;20204;-79
2021/11/30 00:13:02;;;;;;;7.67;7.07;;;0.90;99.90;;;1.68;100.00;97759.13;5210274;28;20297;-80
2021/11/30 00:15:35;;;;;;;7.97;7.37;;;0.80;99.90;;;1.57;100.00;97753.13;5219752;28;20291;-80
2021/11/30 00:18:09;;;;;;;8.10;7.40;;;0.80;99.90;;;1.51;100.00;97753.47;5211323;28;20289;-81
2021/11/30 00:20:44;;;;;;;7.93;7.30;;;0.80;99.90;;;1.45;100.00;97749.53;5208811;28;20208;-81
2021/11/30 00:23:18;;;;;;;8.50;7.80;;;0.70;99.90;;;1.55;100.00;97749.63;5210555;28;20360;-81
2021/11/30 00:25:51;;;;;;;7.97;7.17;;;0.70;99.90;;;1.43;100.00;97758.56;5209054;28;20277;-81
2021/11/30 00:28:25;;;;;;;8.00;7.40;;;0.70;99.90;;;1.38;100.00;97754.78;5211960;28;20224;-81
2021/11/30 00:30:58;;;;;;;8.37;7.63;;;0.70;99.90;;;1.41;100.00;97750.91;5211282;28;20755;-82
2021/11/30 00:33:32;;;;;;;7.57;7.00;;;0.70;99.90;;;1.44;100.00;97747.78;5205319;28;20315;-82
2021/11/30 00:36:05;;;;;;;7.33;6.80;;;0.70;99.90;;;1.33;100.00;97747.69;5207534;28;20289;-81
2021/11/30 00:38:39;;;;;;;6.70;6.17;;;0.60;99.90;;;1.34;100.00;97754.50;5209015;28;20293;-83
2021/11/30 00:41:13;;;;;;;7.00;6.50;;;0.70;99.90;;;1.30;100.00;97761.63;5202633;28;20225;-83
2021/11/30 00:43:47;;;;;;;7.10;6.60;;;0.70;99.90;;;1.40;100.00;97763.34;5209292;28;20312;-83
2021/11/30 00:46:31;;;;;;;7.77;7.10;;;0.70;99.90;;;1.38;100.00;97758.19;5210613;28;20273;-83
2021/11/30 00:49:11;;;;;;;6.97;6.37;;;0.70;99.90;;;1.43;100.00;97763.59;5210523;28;20285;-83
2021/11/30 00:51:45;;;;;;;7.10;6.50;;;0.70;99.90;;;1.38;100.00;97758.19;5216912;28;20344;-83
2021/11/30 00:54:22;;;;;;;6.90;6.37;;;0.70;99.90;;;1.47;100.00;97763.16;5206119;28;20317;-82
2021/11/30 00:56:56;;;;;;;7.93;7.27;;;0.70;99.90;;;1.48;100.00;97767.44;5207032;28;20289;-83
2021/11/30 00:59:29;;;;;;;7.50;6.90;;;0.70;99.90;;;1.58;100.00;97775.06;5209061;28;20201;-83
2021/11/30 01:02:02;;;;;;;8.10;7.47;;;0.80;99.90;;;1.55;100.00;97765.59;5209638;28;20205;-83
2021/11/30 01:04:36;;;;;;;8.27;7.57;;;0.80;99.90;;;1.50;100.00;97768.47;5207113;28;20222;-82
2021/11/30 01:07:11;;;;;;;9.33;8.53;;;0.80;99.90;;;1.55;100.00;97769.78;5210251;28;20287;-82
2021/11/30 01:09:45;;;;;;;8.27;7.67;;;0.80;99.90;;;1.50;100.00;97776.91;5210254;28;20835;-82
2021/11/30 01:12:19;;;;;;;9.77;8.87;;;0.80;99.90;;;1.51;100.00;97787.84;5210426;28;20230;-82
2021/11/30 01:14:52;;;;;;;9.70;8.90;;;0.90;99.90;;;1.50;100.00;97783.56;5214416;28;20293;-81
2021/11/30 01:17:25;;;;;;;9.57;8.67;;;0.90;99.90;;;1.47;100.00;97786.69;5215936;28;20216;-80
2021/11/30 01:19:59;;;;;;;9.73;8.93;;;0.80;99.90;;;1.49;100.00;97789.38;5212191;28;20293;-81
2021/11/30 01:22:32;;;;;;;10.50;9.50;;;0.90;99.90;;;1.53;100.00;97792.28;5207965;28;20284;-80
2021/11/30 01:25:08;;;;;;;9.37;8.57;;;0.80;99.90;;;1.58;100.00;97796.09;5220773;28;20330;-81
2021/11/30 01:27:42;;;;;;;10.80;9.70;;;0.90;99.90;;;1.60;100.00;97793.72;5213200;28;20684;-80
2021/11/30 01:30:16;;;;;;;11.17;10.10;;;0.90;99.90;;;1.60;100.00;97792.81;5211508;28;20201;-80
2021/11/30 01:32:50;;;;;;;11.67;10.57;;;1.00;99.90;;;1.56;100.00;97801.75;5209854;28;20271;-80
2021/11/30 01:35:23;;;;;;;10.63;9.63;;;1.00;99.90;;;1.69;100.00;97806.25;5210669;28;20280;-80
2021/11/30 01:37:56;;;;;;;10.33;9.43;;;1.00;99.90;;;1.59;100.00;97804.53;5210636;28;20571;-80
2021/11/30 01:40:32;;;;;;;10.57;9.57;;;1.00;99.90;;;1.60;100.00;97807.94;5207859;28;20292;-80
2021/11/30 01:43:08;;;;;;;10.97;9.97;;;1.00;99.90;;;1.58;100.00;97820.41;5205019;28;20197;-80
2021/11/30 01:45:45;;;;;;;10.67;9.70;;;1.00;99.90;;;1.61;100.00;97824.84;5205477;28;20292;-80
2021/11/30 01:51:09;;;;;;;11.33;10.30;;;1.00;99.90;;;1.70;100.00;97823.16;5209980;28;20296;-80
2021/11/30 01:53:42;;;;;;;11.93;10.73;;;1.00;99.90;;;1.71;100.00;97815.72;5206700;28;20283;-79
2021/11/30 01:56:17;;;;;;;11.87;10.67;;;1.00;99.90;;;1.72;100.00;97825.06;5209465;28;20748;-80
2021/11/30 01:58:51;;;;;;;11.63;10.53;;;1.00;99.90;;;1.69;100.00;97822.28;5209848;28;20208;-80
2021/11/30 02:01:25;;;;;;;11.83;10.57;;;1.00;99.90;;;1.70;100.00;97829.06;5208288;28;20200;-80
2021/11/30 02:03:58;;;;;;;11.57;10.47;;;1.00;99.90;;;1.67;100.00;97836.34;5206190;28;20282;-80
2021/11/30 02:06:31;;;;;;;11.93;10.73;;;1.00;99.90;;;1.65;100.00;97837.84;5207509;28;20760;-79
2021/11/30 02:09:05;;;;;;;11.63;10.53;;;1.00;99.90;;;1.64;100.00;97835.19;5208235;28;20229;-79
2021/11/30 02:11:40;;;;;;;11.37;10.47;;;1.00;99.90;;;1.61;100.00;97845.00;5204869;28;20210;-79
2021/11/30 02:14:13;;;;;;;12.17;10.97;;;1.00;99.90;;;1.63;100.00;97839.34;5204365;28;20220;-79
2021/11/30 02:16:47;;;;;;;10.97;9.87;;;1.00;99.90;;;1.67;100.00;97838.00;5208485;28;20201;-79
2021/11/30 02:19:20;;;;;;;11.83;10.63;;;1.00;99.90;;;1.70;100.00;97840.78;5211127;28;20202;-79
2021/11/30 02:21:55;;;;;;;11.57;10.33;;;1.10;99.90;;;1.76;100.00;97837.16;5207342;28;20208;-79
2021/11/30 02:24:28;;;;;;;10.87;9.87;;;1.10;99.90;;;1.77;100.00;97836.44;5211113;28;20650;-79
2021/11/30 02:27:01;;;;;;;11.80;10.60;;;1.10;99.90;;;1.81;100.00;97835.09;5212340;28;20324;-78
2021/11/30 02:29:34;;;;;;;11.47;10.37;;;1.10;99.90;;;1.82;100.00;97836.84;5207701;28;20205;-78
2021/11/30 02:32:09;;;;;;;11.23;10.03;;;1.10;99.90;;;1.83;100.00;97840.25;5207481;28;20204;-78
2021/11/30 02:34:42;;;;;;;11.10;10.07;;;1.10;99.90;;;1.84;100.00;97834.47;5215899;28;20238;-79
2021/11/30 02:37:23;;;;;;;11.03;9.83;;;1.10;99.90;;;1.90;100.00;97842.56;5207291;28;20208;-79
2021/11/30 02:39:56;;;;;;;10.37;9.47;;;1.00;99.90;;;1.89;100.00;97848.34;5209899;28;20210;-78
2021/11/30 02:42:30;;;;;;;10.40;9.50;;;1.10;99.90;;;1.91;100.00;97844.34;5206616;28;20212;-79
2021/11/30 02:45:04;;;;;;;10.33;9.43;;;1.10;99.90;;;1.97;100.00;97843.25;5211084;28;20300;-79
2021/11/30 02:47:37;;;;;;;10.30;9.40;;;1.10;99.90;;;1.94;100.00;97844.59;5202372;28;20282;-78
2021/11/30 02:50:10;;;;;;;10.07;9.10;;;1.10;99.90;;;1.90;100.00;97850.13;5208752;28;20289;-78
2021/11/30 02:52:45;;;;;;;10.23;9.33;;;1.10;99.90;;;1.87;100.00;97848.22;5206195;28;20202;-78
2021/11/30 02:55:18;;;;;;;10.10;9.20;;;1.10;99.90;;;1.88;100.00;97846.59;5208206;28;20316;-78
2021/11/30 02:57:51;;;;;;;10.77;9.77;;;1.10;99.90;;;1.93;100.00;97855.44;5208295;28;20301;-78
2021/11/30 03:00:24;;;;;;;10.10;9.20;;;1.10;99.90;;;1.91;100.00;97852.78;5208605;28;20269;-78
2021/11/30 03:02:57;;;;;;;9.87;8.83;;;1.10;99.90;;;1.98;100.00;97846.69;5207210;28;20651;-78
2021/11/30 03:05:30;;;;;;;9.63;8.83;;;1.10;99.90;;;2.01;100.00;97835.22;5206496;28;20194;-78
2021/11/30 03:08:05;;;;;;;9.60;8.80;;;1.10;99.90;;;2.03;100.00;97836.25;5206719;28;20293;-78
2021/11/30 03:10:38;;;;;;;9.47;8.67;;;1.10;99.90;;;2.06;100.00;97843.22;5210775;28;20526;-78
2021/11/30 03:13:11;;;;;;;8.10;7.50;;;1.10;99.90;;;2.05;100.00;97843.94;5207455;28;20269;-78
2021/11/30 03:15:44;;;;;;;8.57;7.70;;;1.10;99.90;;;2.05;100.00;97851.50;5204825;28;20290;-78
2021/11/30 03:18:17;;;;;;;8.90;8.00;;;1.10;99.90;;;2.10;100.00;97845.25;5206154;28;20269;-77
2021/11/30 03:20:50;;;;;;;7.83;7.23;;;1.20;99.90;;;2.10;100.00;97860.38;5204562;28;20207;-79
2021/11/30 03:23:26;;;;;;;7.93;7.33;;;1.20;99.90;;;2.15;100.00;97854.09;5211658;28;20307;-78
2021/11/30 03:26:00;;;;;;;7.83;7.13;;;1.10;99.90;;;2.10;100.00;97850.28;5207525;28;20196;-78
2021/11/30 03:28:33;;;;;;;7.40;6.77;;;1.10;99.90;;;2.16;100.00;97849.94;5209730;28;20664;-78
2021/11/30 03:31:07;;;;;;;8.50;7.67;;;1.10;99.90;;;2.08;100.00;97839.16;5206259;28;20515;-78
2021/11/30 03:36:33;;;;;;;7.83;7.20;;;1.10;99.90;;;2.03;100.00;97846.34;5199307;28;20209;-78
2021/11/30 03:39:13;;;;;;;7.60;7.00;;;1.10;99.90;;;2.06;100.00;97839.78;5205864;28;20205;-78
2021/11/30 03:41:48;;;;;;;6.87;6.30;;;1.10;99.90;;;2.00;100.00;97842.63;5206764;28;20198;-79
2021/11/30 03:44:22;;;;;;;7.60;7.00;;;1.20;99.90;;;1.95;100.00;97839.72;5201690;28;20711;-78
2021/11/30 03:46:56;;;;;;;7.37;6.60;;;1.10;99.90;;;2.12;100.00;97833.66;5203394;28;20234;-78
2021/11/30 03:49:29;;;;;;;7.30;6.70;;;1.20;99.90;;;2.10;100.00;97835.16;5204254;28;20278;-78
2021/11/30 03:52:03;;;;;;;7.70;7.00;;;1.10;99.90;;;2.22;100.00;97836.22;5206792;28;20215;-78
2021/11/30 03:54:38;;;;;;;6.97;6.37;;;1.10;99.90;;;2.16;100.00;97835.69;5212909;28;20663;-78
2021/11/30 03:57:11;;;;;;;7.60;6.80;;;1.20;99.90;;;2.24;100.00;97833.88;5200023;28;20284;-78
2021/11/30 03:59:44;;;;;;;7.27;6.60;;;1.20;99.90;;;2.10;100.00;97822.56;5205127;28;20272;-78
2021/11/30 04:02:17;;;;;;;6.20;5.80;;;1.20;99.90;;;2.06;100.00;97825.56;5204574;28;20640;-78
2021/11/30 04:04:50;;;;;;;8.77;7.33;;;1.20;99.90;;;2.00;100.00;97818.34;5206216;28;20226;-78
2021/11/30 04:07:23;;;;;;;7.80;7.00;;;1.20;99.90;;;2.06;100.00;97807.00;5204286;28;20202;-78
2021/11/30 04:09:58;;;;;;;7.20;6.60;;;1.20;99.90;;;2.07;100.00;97804.63;5207331;28;20212;-78
2021/11/30 04:12:31;;;;;;;8.90;8.10;;;1.20;99.90;;;1.94;100.00;97801.78;5205830;28;20288;-78
2021/11/30 04:15:05;;;;;;;7.87;7.10;;;1.20;99.90;;;1.94;100.00;97804.28;5207294;28;20694;-78
2021/11/30 04:17:40;;;;;;;7.87;7.07;;;1.10;99.90;;;2.02;100.00;97804.22;5204576;28;20211;-78
2021/11/30 04:20:15;;;;;;;8.00;7.40;;;1.20;99.90;;;1.94;100.00;97795.09;5203635;28;20326;-78
2021/11/30 04:22:48;;;;;;;7.97;7.27;;;1.10;99.90;;;2.13;100.00;97790.03;5195710;28;21118;-78
2021/11/30 04:25:23;;;;;;;7.23;6.40;;;1.10;99.90;;;2.13;100.00;97781.59;5196344;28;20300;-78
2021/11/30 04:27:56;;;;;;;7.63;7.00;;;1.10;99.90;;;2.21;100.00;97773.97;5201845;28;20204;-78
2021/11/30 04:30:29;;;;;;;7.20;6.60;;;1.10;99.90;;;2.11;100.00;97771.38;5205142;28;20297;-78
2021/11/30 04:33:03;;;;;;;7.17;6.57;;;1.10;99.90;;;2.10;100.00;97774.66;5206503;28;20277;-79
2021/11/30 04:35:36;;;;;;;6.40;5.90;;;1.10;99.90;;;2.12;100.00;97768.13;5209833;28;20289;-78
2021/11/30 04:38:09;;;;;;;7.13;6.50;;;1.10;99.90;;;2.09;100.00;97767.84;5202667;28;20276;-78
2021/11/30 04:40:44;;;;;;;7.30;6.60;;;1.10;99.90;;;2.03;100.00;97782.41;5205324;28;20292;-79
2021/11/30 04:43:17;;;;;;;7.23;6.43;;;1.20;99.90;;;2.08;100.00;97766.06;5207750;28;20674;-78
2021/11/30 04:45:57;;;;;;;6.93;6.43;;;1.10;99.90;;;2.08;100.00;97761.03;5208697;28;20647;-79
2021/11/30 04:48:32;;;;;;;7.10;6.40;;;1.10;99.90;;;2.06;100.00;97760.03;5209899;28;20661;-79
2021/11/30 04:51:06;;;;;;;6.77;6.17;;;1.10;99.90;;;2.19;100.00;97750.25;5209150;28;20278;-78
2021/11/30 04:53:41;;;;;;;6.60;6.00;;;1.20;99.90;;;2.14;100.00;97755.63;5203724;28;20808;-80
2021/11/30 04:56:16;;;;;;;8.43;6.70;;;1.20;99.90;;;2.18;99.80;97743.44;5211778;28;20217;-78
2021/11/30 04:58:49;;;;;;;6.63;6.03;;;1.30;99.90;;;2.17;98.76;97751.75;5209178;28;20289;-79
2021/11/30 05:01:23;;;;;;;6.80;6.07;;;1.20;99.90;;;2.11;99.34;97748.69;5209333;28;20287;-78
2021/11/30 05:03:59;;;;;;;6.47;5.60;;;1.10;99.90;;;2.15;99.76;97739.78;5207353;28;20230;-78
2021/11/30 05:06:32;;;;;;;6.90;6.40;;;1.20;99.90;;;2.05;99.99;97728.00;5206709;28;20285;-78
2021/11/30 05:09:06;;;;;;;6.93;6.33;;;1.10;99.90;;;2.12;99.83;97732.84;5208151;28;20204;-78
2021/11/30 05:11:41;;;;;;;7.60;6.27;;;1.20;99.90;;;2.19;98.00;97725.03;5204702;28;20295;-78
2021/11/30 05:14:14;;;;;;;6.40;5.50;;;1.30;99.90;;;2.13;99.16;97733.72;5207549;28;20217;-78
2021/11/30 05:16:47;;;;;;;6.20;5.57;;;1.30;99.90;;;1.99;97.62;97727.47;5202096;28;20309;-78
2021/11/30 05:19:20;;;;;;;6.17;5.63;;;1.20;99.90;;;2.11;98.44;97733.56;5209750;28;20625;-79
2021/11/30 05:21:53;;;;;;;6.30;5.77;;;1.10;99.90;;;2.12;97.41;97724.34;5201555;28;20718;-79
2021/11/30 05:24:27;;;;;;;6.33;5.83;;;1.10;99.90;;;2.05;96.91;97725.47;5201611;28;20309;-79
2021/11/30 05:27:03;;;;;;;5.83;5.33;;;1.10;99.90;;;2.08;96.34;97725.72;5203654;28;20294;-79
2021/11/30 05:29:36;;;;;;;6.70;6.10;;;1.10;99.90;;;2.00;96.56;97722.56;5207944;28;20232;-79
2021/11/30 05:32:10;;;;;;;6.00;5.60;;;1.10;99.90;;;2.07;96.52;97713.91;5205370;28;20300;-79
2021/11/30 05:34:43;;;;;;;5.73;5.33;;;1.00;99.90;;;2.04;95.79;97718.66;5210850;28;20309;-78
2021/11/30 05:37:16;;;;;;;6.03;5.53;;;1.00;99.90;;;2.11;95.37;97715.91;5207469;28;20232;-79
2021/11/30 05:39:49;;;;;;;5.90;5.50;;;1.10;99.90;;;2.06;96.15;97718.78;5201817;28;20202;-79
2021/11/30 05:42:24;;;;;;;6.00;5.60;;;1.10;99.90;;;2.02;95.72;97720.16;5198772;28;20202;-78
2021/11/30 05:44:57;;;;;;;6.50;5.90;;;1.10;99.90;;;2.13;94.97;97724.50;5204810;28;20270;-79
2021/11/30 05:47:30;;;;;;;6.03;5.47;;;1.20;99.90;;;2.11;94.72;97720.06;5205980;28;20225;-79
2021/11/30 05:50:04;;;;;;;6.50;5.40;;;1.10;99.90;;;2.02;95.06;97720.16;5207685;28;20794;-79
2021/11/30 05:52:37;;;;;;;6.27;5.70;;;1.10;99.90;;;2.10;93.86;97714.16;5207990;28;20284;-79
2021/11/30 05:55:11;;;;;;;5.83;5.33;;;1.10;99.90;;;2.16;93.31;97714.69;5208822;28;20308;-78
2021/11/30 05:57:46;;;;;;;5.33;4.93;;;1.10;99.90;;;2.14;95.07;97723.75;5209519;28;20223;-79
2021/11/30 06:00:23;;;;;;;6.07;5.47;;;1.20;99.90;;;2.24;93.23;97717.88;5206597;28;20293;-78
2021/11/30 06:03:00;;;;;;;6.33;5.83;;;1.20;99.90;;;2.08;93.80;97713.13;5202967;28;20240;-78
2021/11/30 06:05:36;;;;;;;5.63;5.17;;;1.20;99.90;;;2.07;94.39;97711.38;5202170;28;20241;-79
2021/11/30 06:08:09;;;;;;;6.53;5.23;;;1.10;99.90;;;2.22;93.52;97714.34;5211249;28;20265;-79
2021/11/30 06:10:42;;;;;;;5.50;5.10;;;1.20;99.90;;;2.17;92.50;97710.53;5209602;28;20193;-78
2021/11/30 06:13:17;;;;;;;6.00;5.50;;;1.20;99.90;;;2.15;92.47;97707.00;5208193;28;20697;-78
2021/11/30 06:15:50;;;;;;;7.93;5.67;;;1.20;99.90;;;2.10;93.15;97703.19;5204077;28;20233;-79
2021/11/30 06:18:23;;;;;;;5.90;5.50;;;1.20;99.90;;;2.10;93.55;97701.56;5204999;28;20292;-79
2021/11/30 06:20:57;;;;;;;6.13;5.53;;;1.30;99.90;;;2.10;93.21;97699.03;5201699;28;20201;-79
2021/11/30 06:23:31;;;;;;;6.10;5.60;;;1.30;99.90;;;2.08;92.78;97698.00;5202772;28;20292;-78
2021/11/30 06:26:04;;;;;;;6.03;5.30;;;1.30;99.90;;;2.08;92.35;97695.50;5202357;28;20197;-79
2021/11/30 06:28:39;;;;;;;5.80;5.30;;;1.30;99.90;;;2.10;92.20;97686.44;5204532;28;20208;-79
2021/11/30 06:31:12;;;;;;;6.07;5.50;;;1.20;99.90;;;2.02;93.62;97695.84;5208573;28;20265;-79
2021/11/30 06:33:45;;;;;;;7.83;5.47;;;1.20;99.90;;;1.98;92.41;97680.34;5208707;28;20269;-79
2021/11/30 06:36:18;;;;;;;6.53;6.00;;;1.20;99.90;;;1.90;92.15;97676.25;5204045;28;20293;-79
2021/11/30 06:38:51;;;;;;;6.97;6.07;;;1.30;99.90;;;1.83;93.67;97687.41;5202257;28;20297;-79
2021/11/30 06:41:25;;;;;;;5.93;5.30;;;1.20;99.90;;;1.91;93.37;97693.13;5207238;28;20601;-79
2021/11/30 06:43:59;;;;;;;6.33;5.73;;;1.20;99.90;;;1.85;95.28;97685.06;5207727;28;20239;-78
2021/11/30 06:46:32;;;;;;;6.53;5.87;;;1.20;99.90;;;1.90;94.08;97694.78;5200170;28;20288;-78
2021/11/30 06:49:06;;;;;;;6.93;6.40;;;1.10;99.90;;;1.97;94.41;97692.03;5203491;28;20604;-79
2021/11/30 06:51:39;;;;;;;7.13;6.53;;;1.10;99.90;;;1.86;95.04;97696.88;5212630;28;20204;-80
2021/11/30 06:54:13;;;;;;;6.30;5.80;;;1.10;99.90;;;1.85;96.02;97700.16;5209029;28;20312;-79
2021/11/30 06:56:46;;;;;;;6.50;5.93;;;1.00;99.90;;;1.83;96.10;97704.19;5210168;28;20285;-79
2021/11/30 06:59:20;;;;;;;7.03;6.50;;;0.90;99.90;;;1.79;97.47;97687.91;5208483;28;20292;-79
2021/11/30 07:01:53;;;;;;;7.10;6.47;;;1.00;99.90;;;1.69;97.18;97688.75;5202974;28;20218;-79
2021/11/30 07:04:28;;;;;;;7.13;6.47;;;1.00;99.90;;;1.68;97.68;97688.59;5204697;28;20226;-80
2021/11/30 07:07:08;;;;;;;7.40;6.10;;;0.90;99.90;;;1.73;98.52;97695.81;5203281;28;20193;-79
2021/11/30 07:09:58;;;;;;;9.50;6.97;;;0.90;99.90;;;1.62;99.80;97699.03;5203336;28;20627;-79
2021/11/30 07:12:48;;;;;;;8.33;6.67;;;0.90;99.90;;;1.64;99.96;97697.53;5206006;28;20198;-79
2021/11/30 07:15:23;;;;;;;7.73;7.03;;;0.80;99.90;;;1.71;99.40;97687.25;5202693;28;20305;-79
2021/11/30 07:17:57;;;;;;;7.13;6.47;;;0.70;99.90;;;1.82;98.90;97690.69;5210511;28;20217;-78
2021/11/30 07:20:30;;;;;;;8.20;6.50;;;0.90;99.90;;;1.80;98.48;97678.00;5198228;28;20206;-79
2021/11/30 07:23:03;;;;;;;7.70;7.20;;;1.00;99.90;;;1.72;98.79;97668.88;5200195;28;20208;-79
2021/11/30 07:25:37;;;;;;;8.63;7.90;;;0.90;99.90;;;1.60;99.48;97661.84;5202079;28;20290;-79
2021/11/30 07:28:11;;;;;;;7.60;6.90;;;0.80;99.90;;;1.73;98.60;97674.78;5199536;28;20466;-79
2021/11/30 07:30:45;;;;;;;7.73;7.13;;;0.90;99.90;;;1.73;98.95;97669.75;5188368;28;20278;-79
2021/11/30 07:33:18;;;;;;;7.50;6.90;;;0.90;99.90;;;1.73;98.16;97665.59;5194436;28;20747;-79
2021/11/30 07:35:52;;;;;;;8.13;7.43;;;0.80;99.90;;;1.73;98.39;97660.56;5194121;28;20192;-78
2021/11/30 07:38:25;;;;;;;7.00;6.40;;;0.90;99.90;;;1.69;97.96;97642.50;5195135;28;20222;-78
2021/11/30 07:40:59;;;;;;;8.63;7.47;;;0.90;99.90;;;1.73;97.74;97645.44;5195365;28;20206;-78
2021/11/30 07:43:32;;;;;;;8.97;8.07;;;1.00;99.90;;;1.83;96.38;97628.59;5195828;28;20331;-78
2021/11/30 07:46:07;;;;;;;8.17;7.53;;;1.10;99.90;;;1.85;96.62;97635.53;5193855;28;20202;-78
2021/11/30 07:48:40;;;;;;;8.07;7.27;;;1.00;99.90;;;1.74;97.29;97623.66;5192519;28;20203;-78
2021/11/30 07:51:16;;;;;;;7.67;7.07;;;1.10;99.90;;;1.78;97.02;97619.03;5196810;28;20232;-78
2021/11/30 07:53:50;;;;;;;8.50;7.70;;;1.00;99.90;;;1.91;95.38;97615.03;5186247;28;20318;-78
2021/11/30 07:56:23;;;;;;;7.37;6.77;;;1.00;99.90;;;1.86;96.22;97611.22;5195200;28;20324;-82
2021/11/30 07:58:57;;;;;;;8.30;7.60;;;0.90;99.90;;;1.83;96.86;97605.91;5197461;28;20676;-83
2021/11/30 08:01:32;;;;;;;6.97;6.47;;;1.00;99.90;;;1.88;96.38;97605.56;5198728;28;20296;-83
2021/11/30 08:04:05;;;;;;;8.03;7.33;;;1.00;99.90;;;1.88;96.58;97599.66;5203592;28;20222;-83
2021/11/30 08:06:38;;;;;;;8.40;7.47;;;1.00;99.90;;;1.90;96.00;97598.16;5202588;28;20201;-82
2021/11/30 08:09:13;;;;;;;7.93;7.23;;;1.00;99.90;;;1.96;96.09;97601.19;5196513;28;20214;-83
2021/11/30 08:11:46;;;;;;;7.43;6.83;;;1.10;99.90;;;1.94;96.75;97600.16;5200039;28;20287;-81
2021/11/30 08:14:19;;;;;;;8.10;7.30;;;1.10;99.90;;;1.91;96.58;97610.00;5197224;28;20228;-82
2021/11/30 08:16:53;;;;;;;7.83;7.33;;;1.10;99.90;;;2.02;95.81;97609.28;5203868;28;20227;-82
2021/11/30 08:19:28;;;;;;;7.43;6.70;;;1.10;99.90;;;2.05;94.64;97601.97;5197288;28;20212;-81
2021/11/30 08:22:01;;;;;;;7.30;6.70;;;1.10;99.90;;;2.12;92.90;97601.75;5198248;28;20283;-83
2021/11/30 08:24:35;;;;;;;7.60;6.13;;;1.10;99.90;;;2.07;94.39;97602.13;5199272;28;20253;-81
2021/11/30 08:27:09;;;;;;;6.43;6.00;;;1.10;99.90;;;2.02;95.36;97589.09;5198251;28;20205;-81
2021/11/30 08:29:45;;;;;;;7.53;6.83;;;1.10;99.90;;;2.01;95.18;97594.91;5198614;28;20660;-82
2021/11/30 08:32:22;;;;;;;7.03;6.23;;;1.10;99.90;;;1.87;96.90;97598.78;5202742;28;20222;-81
2021/11/30 08:34:57;;;;;;;7.87;6.17;;;1.00;99.90;;;1.97;96.98;97600.44;5202183;28;20221;-82
2021/11/30 08:37:30;;;;;;;7.10;6.40;;;1.00;99.90;;;1.91;96.67;97589.81;5199819;28;20240;-82
2021/11/30 08:40:08;;;;;;;7.00;6.27;;;1.00;99.90;;;1.93;96.03;97593.38;5199433;28;20194;-82
2021/11/30 08:42:43;;;;;;;6.93;6.33;;;1.00;99.90;;;1.90;96.84;97583.91;5199555;28;20292;-81
2021/11/30 08:45:16;;;;;;;7.00;6.33;;;1.00;99.90;;;1.90;96.58;97588.06;5198557;28;20711;-82
2021/11/30 08:47:51;;;;;;;7.50;6.23;;;1.00;99.90;;;1.83;97.57;97596.72;5198462;28;20694;-81
2021/11/30 08:50:24;;;;;;;7.03;6.33;;;1.00;99.90;;;1.86;97.66;97575.94;5199495;28;20938;-81
2021/11/30 08:52:58;;;;;;;8.47;6.63;;;1.00;99.90;;;1.83;98.70;97576.56;5196777;28;20220;-81
2021/11/30 08:55:32;;;;;;;7.17;6.63;;;1.00;99.90;;;1.92;97.05;97582.41;5201185;28;20193;-82
2021/11/30 08:58:06;;;;;;;6.87;6.30;;;1.10;99.90;;;2.00;97.46;97576.41;5198046;28;20256;-82
2021/11/30 09:00:41;;;;;;;6.97;6.37;;;1.00;99.90;;;1.93;97.02;97568.16;5203044;28;20661;-82
2021/11/30 09:03:15;;;;;;;6.63;6.03;;;1.10;99.90;;;1.79;98.62;97562.81;5200758;28;20810;-82
2021/11/30 09:05:49;;;;;;;6.87;6.27;;;1.10;99.90;;;1.91;98.30;97564.63;5204132;28;20265;-82
2021/11/30 09:08:22;;;;;;;6.60;6.10;;;1.10;99.90;;;1.93;98.19;97556.44;5199578;28;20304;-82
2021/11/30 09:10:56;;;;;;;6.60;5.80;;;1.10;99.90;;;1.87;97.97;97552.53;5201252;28;20221;-81
2021/11/30 09:13:29;;;;;;;7.33;6.63;;;1.10;99.90;;;1.81;98.19;97560.44;5201125;28;20221;-81
2021/11/30 09:16:02;;;;;;;8.93;8.03;;;1.10;99.90;;;1.78;98.88;97547.59;5200135;28;20313;-82
2021/11/30 09:18:37;;;;;;;6.87;6.37;;;1.10;99.90;;;1.84;98.97;97553.16;5201610;28;20667;-82
2021/11/30 09:21:10;;;;;;;6.90;6.20;;;1.10;99.90;;;1.73;100.00;97563.94;5198435;28;20235;-83
2021/11/30 09:23:45;;;;;;;6.13;5.73;;;1.10;99.90;;;1.86;98.53;97568.38;5202989;28;20276;-83
2021/11/30 09:26:18;;;;;;;6.13;5.63;;;1.10;99.90;;;1.85;98.45;97570.03;5201159;28;20635;-85
2021/11/30 09:28:53;;;;;;;6.63;6.13;;;1.10;99.90;;;1.78;99.35;97568.63;5199420;28;20270;-84
2021/11/30 09:31:26;;;;;;;7.23;6.60;;;1.10;99.90;;;1.75;100.00;97563.34;5204857;28;20203;-85
2021/11/30 09:34:02;;;;;;;6.73;6.23;;;1.10;99.90;;;1.77;100.00;97563.44;5207454;28;20225;-84
2021/11/30 09:36:37;;;;;;;6.43;5.83;;;1.00;99.90;;;1.82;100.00;97573.94;5206833;28;20295;-85
2021/11/30 09:39:10;;;;;;;7.23;6.57;;;1.00;99.90;;;1.73;100.00;97564.81;5206057;28;20305;-84
2021/11/30 09:41:45;;;;;;;6.63;6.07;;;1.00;99.90;;;1.67;100.00;97564.31;5208830;28;20201;-86
2021/11/30 09:44:18;;;;;;;6.43;5.93;;;1.00;99.90;;;1.78;100.00;97547.59;5205636;28;20335;-85
2021/11/30 09:46:51;;;;;;;6.70;6.10;;;0.90;99.90;;;1.83;100.00;97556.41;5205994;28;20241;-85
2021/11/30 09:49:29;;;;;;;7.20;6.60;;;1.00;99.90;;;1.73;100.00;97547.19;5202883;28;20348;-85
2021/11/30 09:52:02;;;;;;;7.47;6.77;;;1.00;99.90;;;1.71;100.00;97551.22;5203897;28;20223;-84
2021/11/30 09:54:35;;;;;;;7.63;6.93;;;1.00;99.90;;;1.86;100.00;97540.66;5204007;28;20240;-86
2021/11/30 09:57:09;;;;;;;7.03;6.50;;;0.90;99.90;;;1.77;100.00;97540.78;5205694;28;20274;-85
2021/11/30 09:59:46;;;;;;;7.17;6.67;;;1.00;99.90;;;1.66;100.00;97537.38;5204058;28;21091;-85
2021/11/30 10:02:19;;;;;;;6.67;6.07;;;1.00;99.90;;;1.78;100.00;97532.47;5200013;28;20289;-86
2021/11/30 10:04:54;;;;;;;6.83;6.23;;;1.00;99.90;;;1.80;100.00;97526.81;5202856;28;20279;-85
2021/11/30 10:07:39;;;;;;;9.50;7.97;;;1.00;99.90;;;1.64;100.00;97526.25;5201627;28;20213;-85
2021/11/30 10:10:17;;;;;;;7.53;6.67;;;1.00;99.90;;;1.59;100.00;97527.50;5203730;28;20244;-85
2021/11/30 10:13:10;;;;;;;8.20;6.60;;;1.00;99.90;;;1.67;100.00;97513.94;5202084;28;20290;-86
2021/11/30 10:15:58;;;;;;;7.17;6.63;;;1.00;99.90;;;1.86;100.00;97512.94;5201322;28;20232;-86
2021/11/30 10:18:35;;;;;;;6.80;6.10;;;1.00;99.90;;;1.77;100.00;97505.50;5198296;28;20221;-86
2021/11/30 10:21:22;;;;;;;6.87;6.27;;;1.00;99.90;;;1.83;100.00;97506.00;5205949;28;20225;-87
2021/11/30 10:24:01;;;;;;;6.90;6.20;;;1.10;99.90;;;1.86;100.00;97500.34;5200973;28;20291;-86
2021/11/30 10:26:37;;;;;;;7.83;7.10;;;1.00;99.90;;;1.76;100.00;97506.28;5201046;28;20245;-86
2021/11/30 10:29:17;;;;;;;7.60;7.10;;;1.00;99.90;;;1.70;100.00;97488.13;5201290;28;20209;-85
2021/11/30 10:31:53;;;;;;;6.77;6.17;;;1.00;99.90;;;1.63;100.00;97504.34;5192049;28;20276;-85
2021/11/30 10:34:30;;;;;;;7.13;6.57;;;1.00;99.90;;;1.80;100.00;97494.06;5197911;28;20891;-85
2021/11/30 10:37:11;;;;;;;5.90;5.40;;;1.10;99.90;;;1.74;100.00;97485.97;5199821;28;20268;-85
2021/11/30 10:39:45;;;;;;;5.87;5.37;;;1.00;99.90;;;1.71;100.00;97483.19;5197541;28;20221;-84
2021/11/30 10:42:22;;;;;;;5.60;5.10;;;1.00;99.90;;;1.66;100.00;97489.50;5199369;28;20208;-85
2021/11/30 10:44:57;;;;;;;6.00;5.47;;;1.00;99.90;;;1.64;100.00;97483.44;5202534;28;20734;-84
2021/11/30 10:47:31;;;;;;;5.20;4.90;;;1.00;99.90;;;1.68;100.00;97479.53;5200960;28;20211;-85
2021/11/30 10:50:11;;;;;;;5.40;5.00;;;0.90;99.90;;;1.67;100.00;97487.88;5206491;28;20207;-84
2021/11/30 10:52:46;;;;;;;6.57;5.90;;;1.00;99.90;;;1.54;100.00;97490.97;5206536;28;20290;-86
2021/11/30 10:55:20;;;;;;;5.27;4.87;;;1.00;99.90;;;1.62;100.00;97479.91;5203903;28;20311;-84
2021/11/30 10:57:53;;;;;;;4.50;4.20;;;1.00;99.90;;;1.66;100.00;97483.56;5207814;28;20205;-85
2021/11/30 11:00:29;;;;;;;5.23;4.83;;;1.00;99.90;;;1.70;100.00;97478.03;5214763;28;20244;-84
2021/11/30 11:03:08;;;;;;;6.63;4.43;;;1.00;99.90;;;1.72;100.00;97484.97;5203275;28;20240;-84
2021/11/30 11:05:45;;;;;;;5.27;4.87;;;1.00;99.90;;;1.59;100.00;97474.59;5208009;28;20208;-85
2021/11/30 11:08:23;;;;;;;4.93;4.63;;;1.00;99.90;;;1.60;100.00;97471.31;5202198;28;20197;-86